createdAt,value
2019-04-26T00:00:44.290Z,0.00
2019-04-26T00:01:44.264Z,0.00
2019-04-26T00:02:44.347Z,0.00
2019-04-26T00:03:44.307Z,0.00
2019-04-26T00:04:44.333Z,0.00
2019-04-26T00:05:44.348Z,0.00
2019-04-26T00:06:44.369Z,0.00
2019-04-26T00:07:44.392Z,0.00
2019-04-26T00:08:44.412Z,0.00
2019-04-26T00:09:44.434Z,0.00
2019-04-26T00:10:44.457Z,0.00
2019-04-26T00:11:44.476Z,0.00
2019-04-26T00:12:44.500Z,0.00
2019-04-26T00:13:44.521Z,0.00
2019-04-26T00:14:44.539Z,0.00
2019-04-26T00:15:44.562Z,0.00
2019-04-26T00:16:44.584Z,0.00
2019-04-26T00:17:44.608Z,0.00
2019-04-26T00:18:44.624Z,0.00
2019-04-26T00:19:44.648Z,0.00
2019-04-26T00:20:44.670Z,0.00
2019-04-26T00:21:44.691Z,0.00
2019-04-26T00:22:44.712Z,0.00
2019-04-26T00:23:44.734Z,0.00
2019-04-26T00:24:44.755Z,0.00
2019-04-26T00:25:44.780Z,0.00
2019-04-26T00:26:44.797Z,0.00
2019-04-26T00:27:44.828Z,0.00
2019-04-26T00:28:44.839Z,0.00
2019-04-26T00:29:44.862Z,0.00
2019-04-26T00:30:44.884Z,0.00
2019-04-26T00:31:44.905Z,0.00
2019-04-26T00:32:44.926Z,0.00
2019-04-26T00:33:44.946Z,0.00
2019-04-26T00:34:44.972Z,0.00
2019-04-26T00:35:47.576Z,0.00
2019-04-26T00:36:45.010Z,0.00
2019-04-26T00:37:45.031Z,0.00
2019-04-26T00:38:45.054Z,0.00
2019-04-26T00:39:45.075Z,0.00
2019-04-26T00:40:45.095Z,0.00
2019-04-26T00:41:45.117Z,0.00
2019-04-26T00:42:45.139Z,0.00
2019-04-26T00:43:45.159Z,0.00
2019-04-26T00:44:45.180Z,0.00
2019-04-26T00:45:45.206Z,0.00
2019-04-26T00:46:45.227Z,0.00
2019-04-26T00:47:45.242Z,0.00
2019-04-26T00:48:45.265Z,0.00
2019-04-26T00:49:45.287Z,0.00
2019-04-26T00:50:45.311Z,0.00
2019-04-26T00:51:45.339Z,0.00
2019-04-26T00:52:45.383Z,0.00
2019-04-26T00:53:45.373Z,0.00
2019-04-26T00:54:45.393Z,0.00
2019-04-26T00:55:45.414Z,0.00
2019-04-26T00:56:45.436Z,0.00
2019-04-26T00:57:45.456Z,0.00
2019-04-26T00:58:45.479Z,0.00
2019-04-26T00:59:45.498Z,0.00
2019-04-26T01:00:45.519Z,0.00
2019-04-26T01:01:45.541Z,0.00
2019-04-26T01:02:45.563Z,0.00
2019-04-26T01:03:45.584Z,0.00
2019-04-26T01:04:45.606Z,0.00
2019-04-26T01:05:45.630Z,0.00
2019-04-26T01:06:45.648Z,0.00
2019-04-26T01:07:45.673Z,0.00
2019-04-26T01:08:45.690Z,0.00
2019-04-26T01:09:45.713Z,0.00
2019-04-26T01:10:45.731Z,0.00
2019-04-26T01:11:45.755Z,0.00
2019-04-26T01:12:45.774Z,0.00
2019-04-26T01:13:45.794Z,0.00
2019-04-26T01:14:45.817Z,0.00
2019-04-26T01:15:45.838Z,0.00
2019-04-26T01:16:45.858Z,0.00
2019-04-26T01:17:45.879Z,0.00
2019-04-26T01:18:45.901Z,0.00
2019-04-26T01:19:45.921Z,0.00
2019-04-26T01:20:45.956Z,0.00
2019-04-26T01:21:46.025Z,0.00
2019-04-26T01:22:46.044Z,0.00
2019-04-26T01:23:46.097Z,0.00
2019-04-26T01:24:46.098Z,0.00
2019-04-26T01:25:46.084Z,0.00
2019-04-26T01:26:46.102Z,0.00
2019-04-26T01:27:46.104Z,0.00
2019-04-26T01:28:46.121Z,0.00
2019-04-26T01:29:46.135Z,0.00
2019-04-26T01:30:46.154Z,0.00
2019-04-26T01:31:46.177Z,0.00
2019-04-26T01:32:46.197Z,0.00
2019-04-26T01:33:46.218Z,0.00
2019-04-26T01:34:46.242Z,0.00
2019-04-26T01:35:46.262Z,0.00
2019-04-26T01:36:46.282Z,0.00
2019-04-26T01:37:46.303Z,0.00
2019-04-26T01:38:46.320Z,0.00
2019-04-26T01:39:46.345Z,0.00
2019-04-26T01:40:46.367Z,0.00
2019-04-26T01:41:46.389Z,0.00
2019-04-26T01:42:46.415Z,0.00
2019-04-26T01:43:46.427Z,0.00
2019-04-26T01:44:46.450Z,0.00
2019-04-26T01:45:46.468Z,0.00
2019-04-26T01:46:46.491Z,0.00
2019-04-26T01:47:46.513Z,0.00
2019-04-26T01:48:46.534Z,0.00
2019-04-26T01:49:46.554Z,0.00
2019-04-26T01:50:46.579Z,0.00
2019-04-26T01:51:46.599Z,0.00
2019-04-26T01:52:46.618Z,0.00
2019-04-26T01:53:46.637Z,0.00
2019-04-26T01:54:46.669Z,0.00
2019-04-26T01:55:46.685Z,0.00
2019-04-26T01:56:46.700Z,0.00
2019-04-26T01:57:46.723Z,0.00
2019-04-26T01:58:46.743Z,0.00
2019-04-26T01:59:46.769Z,0.00
2019-04-26T02:00:46.785Z,0.00
2019-04-26T02:01:46.806Z,0.00
2019-04-26T02:02:46.829Z,0.00
2019-04-26T02:03:46.848Z,0.00
2019-04-26T02:04:46.869Z,0.00
2019-04-26T02:05:46.892Z,0.00
2019-04-26T02:06:46.911Z,0.00
2019-04-26T02:07:46.932Z,0.00
2019-04-26T02:08:46.956Z,0.00
2019-04-26T02:09:46.974Z,0.00
2019-04-26T02:10:46.995Z,0.00
2019-04-26T02:11:47.016Z,0.00
2019-04-26T02:12:47.038Z,0.00
2019-04-26T02:13:47.057Z,0.00
2019-04-26T02:14:47.079Z,0.00
2019-04-26T02:15:47.099Z,0.00
2019-04-26T02:16:47.120Z,0.00
2019-04-26T02:17:47.140Z,0.00
2019-04-26T02:18:47.163Z,0.00
2019-04-26T02:19:47.181Z,0.00
2019-04-26T02:20:47.210Z,0.00
2019-04-26T02:21:47.224Z,0.00
2019-04-26T02:22:47.244Z,0.00
2019-04-26T02:23:47.267Z,0.00
2019-04-26T02:24:47.287Z,0.00
2019-04-26T02:25:47.308Z,0.00
2019-04-26T02:26:47.328Z,0.00
2019-04-26T02:27:47.351Z,0.00
2019-04-26T02:28:47.373Z,0.00
2019-04-26T02:29:47.429Z,0.00
2019-04-26T02:30:47.415Z,0.00
2019-04-26T02:31:47.444Z,0.00
2019-04-26T02:32:47.457Z,0.00
2019-04-26T02:33:47.476Z,0.00
2019-04-26T02:34:47.497Z,0.00
2019-04-26T02:35:47.521Z,0.00
2019-04-26T02:36:57.863Z,0.00
2019-04-26T02:37:47.558Z,0.00
2019-04-26T02:38:47.582Z,0.00
2019-04-26T02:39:47.599Z,0.00
2019-04-26T02:40:47.621Z,0.00
2019-04-26T02:41:47.642Z,0.00
2019-04-26T02:42:47.670Z,0.00
2019-04-26T02:43:47.693Z,0.00
2019-04-26T02:44:47.705Z,0.00
2019-04-26T02:45:47.727Z,0.00
2019-04-26T02:46:47.746Z,0.00
2019-04-26T02:47:47.770Z,0.00
2019-04-26T02:48:47.786Z,0.00
2019-04-26T02:49:47.810Z,0.00
2019-04-26T02:50:47.834Z,0.00
2019-04-26T02:51:47.910Z,0.00
2019-04-26T02:52:47.921Z,0.00
2019-04-26T02:53:47.982Z,0.00
2019-04-26T02:54:47.977Z,0.00
2019-04-26T02:55:47.981Z,0.00
2019-04-26T02:56:47.979Z,0.00
2019-04-26T02:57:48.080Z,0.00
2019-04-26T02:58:47.996Z,0.00
2019-04-26T02:59:48.017Z,0.00
2019-04-26T03:00:48.040Z,0.00
2019-04-26T03:01:48.057Z,0.00
2019-04-26T03:02:48.079Z,0.00
2019-04-26T03:03:48.101Z,0.00
2019-04-26T03:04:48.123Z,0.00
2019-04-26T03:05:48.141Z,0.00
2019-04-26T03:07:02.457Z,0.00
2019-04-26T03:07:48.190Z,0.00
2019-04-26T03:08:48.204Z,0.00
2019-04-26T03:09:48.221Z,4.00
2019-04-26T03:10:48.243Z,4.00
2019-04-26T03:11:48.265Z,4.00
2019-04-26T03:12:48.284Z,0.00
2019-04-26T03:13:48.306Z,4.00
2019-04-26T03:14:48.327Z,4.00
2019-04-26T03:15:48.346Z,4.00
2019-04-26T03:16:48.367Z,4.00
2019-04-26T03:17:48.387Z,4.00
2019-04-26T03:18:48.410Z,8.00
2019-04-26T03:19:48.431Z,8.00
2019-04-26T03:20:48.449Z,8.00
2019-04-26T03:21:48.470Z,8.00
2019-04-26T03:22:48.490Z,12.00
2019-04-26T03:23:57.560Z,16.00
2019-04-26T03:24:48.862Z,16.00
2019-04-26T03:25:48.552Z,24.00
2019-04-26T03:26:48.574Z,24.00
2019-04-26T03:27:48.595Z,28.00
2019-04-26T03:28:48.614Z,32.00
2019-04-26T03:29:48.633Z,36.00
2019-04-26T03:30:52.363Z,40.00
2019-04-26T03:31:53.575Z,48.00
2019-04-26T03:32:51.500Z,52.00
2019-04-26T03:33:53.632Z,64.00
2019-04-26T03:34:54.074Z,68.00
2019-04-26T03:35:56.287Z,80.00
2019-04-26T03:36:48.783Z,92.00
2019-04-26T03:37:48.797Z,100.00
2019-04-26T03:38:48.822Z,112.00
2019-04-26T03:39:48.854Z,124.00
2019-04-26T03:40:48.861Z,136.00
2019-04-26T03:41:48.882Z,152.00
2019-04-26T03:42:48.921Z,168.00
2019-04-26T03:43:48.922Z,180.00
2019-04-26T03:44:48.941Z,200.00
2019-04-26T03:45:48.964Z,216.00
2019-04-26T03:46:48.984Z,236.00
2019-04-26T03:47:49.006Z,252.00
2019-04-26T03:48:49.021Z,272.00
2019-04-26T03:49:49.044Z,292.00
2019-04-26T03:50:49.066Z,316.00
2019-04-26T03:51:49.084Z,344.00
2019-04-26T03:52:49.104Z,372.00
2019-04-26T03:53:49.125Z,404.00
2019-04-26T03:54:49.145Z,440.00
2019-04-26T03:55:49.167Z,480.00
2019-04-26T03:56:49.183Z,520.00
2019-04-26T03:57:49.220Z,576.00
2019-04-26T03:58:49.228Z,644.00
2019-04-26T03:59:49.249Z,720.00
2019-04-26T04:00:49.268Z,796.00
2019-04-26T04:01:49.288Z,872.00
2019-04-26T04:02:49.310Z,944.00
2019-04-26T04:03:49.330Z,1008.00
2019-04-26T04:04:49.351Z,1060.00
2019-04-26T04:05:49.370Z,1100.00
2019-04-26T04:07:03.012Z,1132.00
2019-04-26T04:07:51.422Z,1164.00
2019-04-26T04:08:49.434Z,1192.00
2019-04-26T04:09:49.465Z,1228.00
2019-04-26T04:10:49.477Z,1260.00
2019-04-26T04:11:49.711Z,1288.00
2019-04-26T04:12:49.512Z,1316.00
2019-04-26T04:13:51.414Z,1348.00
2019-04-26T04:14:49.554Z,1384.00
2019-04-26T04:15:49.597Z,1424.00
2019-04-26T04:16:49.595Z,1456.00
2019-04-26T04:17:50.201Z,1488.00
2019-04-26T04:18:49.640Z,1520.00
2019-04-26T04:19:49.655Z,1560.00
2019-04-26T04:20:49.682Z,1600.00
2019-04-26T04:21:49.710Z,1636.00
2019-04-26T04:22:49.718Z,1664.00
2019-04-26T04:23:49.809Z,1704.00
2019-04-26T04:24:49.812Z,1752.00
2019-04-26T04:25:49.828Z,1788.00
2019-04-26T04:26:49.890Z,1820.00
2019-04-26T04:27:49.889Z,1852.00
2019-04-26T04:28:49.998Z,1892.00
2019-04-26T04:29:55.017Z,1944.00
2019-04-26T04:30:49.879Z,1988.00
2019-04-26T04:31:49.923Z,2036.00
2019-04-26T04:32:50.595Z,2092.00
2019-04-26T04:33:49.941Z,2144.00
2019-04-26T04:34:49.963Z,2184.00
2019-04-26T04:35:49.981Z,2196.00
2019-04-26T04:36:51.474Z,2212.00
2019-04-26T04:38:05.900Z,2244.00
2019-04-26T04:38:50.045Z,2292.00
2019-04-26T04:39:50.087Z,2364.00
2019-04-26T04:40:50.090Z,2412.00
2019-04-26T04:41:50.108Z,2436.00
2019-04-26T04:42:50.374Z,2444.00
2019-04-26T04:43:50.906Z,2448.00
2019-04-26T04:44:50.166Z,2444.00
2019-04-26T04:45:50.211Z,2440.00
2019-04-26T04:46:51.892Z,2436.00
2019-04-26T04:47:52.517Z,2444.00
2019-04-26T04:48:51.152Z,2456.00
2019-04-26T04:49:50.908Z,2456.00
2019-04-26T04:50:51.227Z,2468.00
2019-04-26T04:51:51.560Z,2528.00
2019-04-26T04:52:50.332Z,2680.00
2019-04-26T04:53:51.598Z,2904.00
2019-04-26T04:55:03.250Z,3132.00
2019-04-26T04:55:50.392Z,3384.00
2019-04-26T04:56:50.409Z,3704.00
2019-04-26T04:57:50.442Z,4012.00
2019-04-26T04:58:50.453Z,4272.00
2019-04-26T04:59:50.472Z,4496.00
2019-04-26T05:00:51.341Z,4636.00
2019-04-26T05:01:50.515Z,4756.00
2019-04-26T05:02:50.762Z,4888.00
2019-04-26T05:03:51.042Z,5008.00
2019-04-26T05:04:51.106Z,5144.00
2019-04-26T05:05:51.124Z,5372.00
2019-04-26T05:06:51.183Z,5592.00
2019-04-26T05:07:51.420Z,5744.00
2019-04-26T05:08:51.518Z,5848.00
2019-04-26T05:09:51.573Z,5992.00
2019-04-26T05:10:50.700Z,6136.00
2019-04-26T05:11:51.869Z,6272.00
2019-04-26T05:12:50.739Z,6436.00
2019-04-26T05:13:50.759Z,6564.00
2019-04-26T05:14:50.783Z,6668.00
2019-04-26T05:15:50.805Z,6776.00
2019-04-26T05:16:50.822Z,6876.00
2019-04-26T05:17:51.537Z,6992.00
2019-04-26T05:18:50.865Z,7100.00
2019-04-26T05:19:50.887Z,7172.00
2019-04-26T05:20:51.270Z,7192.00
2019-04-26T05:21:50.948Z,7232.00
2019-04-26T05:22:51.202Z,7176.00
2019-04-26T05:23:51.066Z,7136.00
2019-04-26T05:24:51.253Z,7040.00
2019-04-26T05:25:51.429Z,7028.00
2019-04-26T05:26:51.507Z,6884.00
2019-04-26T05:27:51.055Z,6736.00
2019-04-26T05:28:51.724Z,6568.00
2019-04-26T05:29:52.015Z,6408.00
2019-04-26T05:30:51.993Z,6224.00
2019-04-26T05:31:51.532Z,6096.00
2019-04-26T05:32:51.161Z,6004.00
2019-04-26T05:33:51.181Z,5880.00
2019-04-26T05:34:51.207Z,5708.00
2019-04-26T05:35:51.224Z,5536.00
2019-04-26T05:36:51.245Z,5328.00
2019-04-26T05:37:51.270Z,5304.00
2019-04-26T05:38:51.289Z,5392.00
2019-04-26T05:39:51.310Z,5532.00
2019-04-26T05:40:51.510Z,5668.00
2019-04-26T05:41:51.533Z,5776.00
2019-04-26T05:42:51.675Z,5928.00
2019-04-26T05:43:51.809Z,6076.00
2019-04-26T05:44:51.875Z,6216.00
2019-04-26T05:45:51.495Z,6348.00
2019-04-26T05:46:51.664Z,6404.00
2019-04-26T05:48:06.129Z,6492.00
2019-04-26T05:48:51.917Z,6552.00
2019-04-26T05:49:51.794Z,6588.00
2019-04-26T05:50:51.884Z,6636.00
2019-04-26T05:51:52.000Z,6796.00
2019-04-26T05:52:51.773Z,6912.00
2019-04-26T05:53:52.790Z,6812.00
2019-04-26T05:54:52.228Z,7124.00
2019-04-26T05:55:52.278Z,8552.00
2019-04-26T05:56:52.672Z,11888.00
2019-04-26T05:57:52.548Z,11400.00
2019-04-26T05:58:52.802Z,8828.00
2019-04-26T05:59:52.327Z,8252.00
2019-04-26T06:00:52.063Z,7224.00
2019-04-26T06:01:53.151Z,7460.00
2019-04-26T06:02:52.658Z,6972.00
2019-04-26T06:03:52.314Z,6964.00
2019-04-26T06:04:52.358Z,7036.00
2019-04-26T06:05:52.365Z,6500.00
2019-04-26T06:06:53.052Z,6380.00
2019-04-26T06:07:52.219Z,6360.00
2019-04-26T06:08:52.875Z,6528.00
2019-04-26T06:09:52.782Z,6500.00
2019-04-26T06:10:52.726Z,6552.00
2019-04-26T06:11:52.816Z,6656.00
2019-04-26T06:12:52.483Z,6752.00
2019-04-26T06:13:52.302Z,6884.00
2019-04-26T06:14:52.869Z,7480.00
2019-04-26T06:15:52.777Z,8296.00
2019-04-26T06:16:53.066Z,10108.00
2019-04-26T06:17:53.055Z,10716.00
2019-04-26T06:18:53.064Z,15180.00
2019-04-26T06:19:53.210Z,14452.00
2019-04-26T06:20:52.887Z,15516.00
2019-04-26T06:21:52.407Z,19328.00
2019-04-26T06:22:53.930Z,20480.00
2019-04-26T06:23:52.891Z,29536.00
2019-04-26T06:24:53.057Z,37824.00
2019-04-26T06:25:54.652Z,40960.00
2019-04-26T06:26:52.957Z,42144.00
2019-04-26T06:27:53.040Z,45024.00
2019-04-26T06:28:53.052Z,47520.00
2019-04-26T06:29:53.734Z,47904.00
2019-04-26T06:30:53.951Z,47392.00
2019-04-26T06:31:53.409Z,47008.00
2019-04-26T06:33:00.388Z,47744.00
2019-04-26T06:33:52.492Z,25952.00
2019-04-26T06:34:53.711Z,21856.00
2019-04-26T06:35:53.190Z,37920.00
2019-04-26T06:36:53.238Z,39808.00
2019-04-26T06:37:53.903Z,32640.00
2019-04-26T06:38:54.278Z,38176.00
2019-04-26T06:39:53.389Z,38336.00
2019-04-26T06:40:53.468Z,23552.00
2019-04-26T06:41:54.704Z,19680.00
2019-04-26T06:42:54.742Z,14540.00
2019-04-26T06:43:52.760Z,13580.00
2019-04-26T06:44:52.760Z,26720.00
2019-04-26T06:45:52.787Z,35008.00
2019-04-26T06:46:52.813Z,32800.00
2019-04-26T06:47:52.839Z,28000.00
2019-04-26T06:48:52.863Z,19360.00
2019-04-26T06:49:52.887Z,20032.00
2019-04-26T06:50:52.913Z,28064.00
2019-04-26T06:51:52.940Z,31456.00
2019-04-26T06:52:52.965Z,23296.00
2019-04-26T06:53:52.993Z,29856.00
2019-04-26T06:54:53.018Z,41408.00
2019-04-26T06:55:53.044Z,37760.00
2019-04-26T06:56:53.069Z,43680.00
2019-04-26T06:57:53.096Z,44992.00
2019-04-26T06:58:53.122Z,24352.00
2019-04-26T06:59:53.157Z,21408.00
2019-04-26T07:00:53.177Z,25184.00
2019-04-26T07:01:53.201Z,47072.00
2019-04-26T07:02:53.229Z,44640.00
2019-04-26T07:03:53.259Z,44416.00
2019-04-26T07:04:53.288Z,47776.00
2019-04-26T07:05:53.310Z,51680.00
2019-04-26T07:06:53.339Z,30976.00
2019-04-26T07:07:53.366Z,16856.00
2019-04-26T07:08:57.461Z,15644.00
2019-04-26T07:09:53.418Z,15568.00
2019-04-26T07:10:53.537Z,16476.00
2019-04-26T07:11:53.477Z,16208.00
2019-04-26T07:12:53.503Z,16848.00
2019-04-26T07:13:53.595Z,20064.00
2019-04-26T07:14:53.595Z,51296.00
2019-04-26T07:15:53.659Z,21760.00
2019-04-26T07:16:53.656Z,22752.00
2019-04-26T07:17:53.661Z,23904.00
2019-04-26T07:18:53.666Z,25728.00
2019-04-26T07:19:53.696Z,23840.00
2019-04-26T07:20:53.722Z,24672.00
2019-04-26T07:21:53.751Z,24512.00
2019-04-26T07:22:53.780Z,34144.00
2019-04-26T07:23:53.806Z,32576.00
2019-04-26T07:24:53.835Z,56768.00
2019-04-26T07:25:53.861Z,26336.00
2019-04-26T07:26:53.892Z,30240.00
2019-04-26T07:28:03.666Z,59456.00
2019-04-26T07:28:53.948Z,65312.00
2019-04-26T07:29:53.975Z,56672.00
2019-04-26T07:30:54.002Z,54688.00
2019-04-26T07:31:54.033Z,53504.00
2019-04-26T07:32:54.060Z,33216.00
2019-04-26T07:33:54.090Z,46112.00
2019-04-26T07:34:54.120Z,62112.00
2019-04-26T07:35:54.151Z,69152.00
2019-04-26T07:36:54.179Z,61184.00
2019-04-26T07:37:54.209Z,74144.00
2019-04-26T07:38:54.244Z,60384.00
2019-04-26T07:39:54.266Z,33376.00
2019-04-26T07:40:54.300Z,29056.00
2019-04-26T07:41:54.328Z,28640.00
2019-04-26T07:42:54.361Z,27040.00
2019-04-26T07:43:54.392Z,26880.00
2019-04-26T07:44:54.424Z,26016.00
2019-04-26T07:45:54.448Z,24640.00
2019-04-26T07:46:54.480Z,23968.00
2019-04-26T07:47:54.511Z,23648.00
2019-04-26T07:48:54.539Z,22816.00
2019-04-26T07:49:54.570Z,22336.00
2019-04-26T07:50:54.598Z,22464.00
2019-04-26T07:51:54.630Z,22880.00
2019-04-26T07:52:54.660Z,25952.00
2019-04-26T07:53:54.691Z,24704.00
2019-04-26T07:54:54.719Z,24448.00
2019-04-26T07:55:54.750Z,23648.00
2019-04-26T07:56:54.780Z,23616.00
2019-04-26T07:57:54.814Z,23744.00
2019-04-26T07:58:54.845Z,24160.00
2019-04-26T07:59:54.866Z,24544.00
2019-04-26T08:00:54.896Z,24160.00
2019-04-26T08:01:54.925Z,23552.00
2019-04-26T08:02:54.959Z,23136.00
2019-04-26T08:03:54.986Z,22976.00
2019-04-26T08:04:55.018Z,23136.00
2019-04-26T08:05:55.047Z,23520.00
2019-04-26T08:06:55.075Z,24032.00
2019-04-26T08:07:55.105Z,23808.00
2019-04-26T08:08:55.130Z,23392.00
2019-04-26T08:09:59.914Z,22976.00
2019-04-26T08:10:55.191Z,22528.00
2019-04-26T08:11:55.223Z,22208.00
2019-04-26T08:12:55.252Z,21888.00
2019-04-26T08:13:55.278Z,21376.00
2019-04-26T08:14:55.309Z,20768.00
2019-04-26T08:15:55.338Z,20096.00
2019-04-26T08:16:55.367Z,19456.00
2019-04-26T08:17:55.398Z,18944.00
2019-04-26T08:18:55.434Z,18656.00
2019-04-26T08:19:57.541Z,18496.00
2019-04-26T08:20:55.521Z,18464.00
2019-04-26T08:21:55.588Z,18560.00
2019-04-26T08:22:55.578Z,18784.00
2019-04-26T08:23:56.572Z,19072.00
2019-04-26T08:24:55.599Z,19488.00
2019-04-26T08:25:55.629Z,20064.00
2019-04-26T08:27:08.094Z,20608.00
2019-04-26T08:27:55.685Z,20992.00
2019-04-26T08:28:56.578Z,21408.00
2019-04-26T08:29:55.742Z,21696.00
2019-04-26T08:30:55.770Z,21888.00
2019-04-26T08:31:57.854Z,22080.00
2019-04-26T08:32:55.828Z,22400.00
2019-04-26T08:33:55.858Z,22880.00
2019-04-26T08:34:55.885Z,23488.00
2019-04-26T08:35:55.917Z,24160.00
2019-04-26T08:36:57.256Z,25184.00
2019-04-26T08:37:55.968Z,26240.00
2019-04-26T08:38:56.000Z,26912.00
2019-04-26T08:39:56.103Z,26848.00
2019-04-26T08:40:56.061Z,26560.00
2019-04-26T08:41:56.084Z,25952.00
2019-04-26T08:42:57.323Z,25024.00
2019-04-26T08:43:56.143Z,23936.00
2019-04-26T08:44:56.173Z,22976.00
2019-04-26T08:46:02.761Z,22272.00
2019-04-26T08:46:57.077Z,22208.00
2019-04-26T08:47:56.259Z,23072.00
2019-04-26T08:48:58.160Z,25248.00
2019-04-26T08:49:56.319Z,26624.00
2019-04-26T08:50:56.343Z,27200.00
2019-04-26T08:51:57.459Z,28672.00
2019-04-26T08:52:57.868Z,30240.00
2019-04-26T08:53:56.431Z,31264.00
2019-04-26T08:54:56.460Z,32064.00
2019-04-26T08:55:56.490Z,32896.00
2019-04-26T08:56:56.522Z,32800.00
2019-04-26T08:57:56.546Z,32736.00
2019-04-26T08:58:56.581Z,32000.00
2019-04-26T08:59:56.604Z,30240.00
2019-04-26T09:00:56.635Z,28256.00
2019-04-26T09:01:56.664Z,26016.00
2019-04-26T09:02:56.693Z,23488.00
2019-04-26T09:03:56.730Z,21088.00
2019-04-26T09:04:56.750Z,19296.00
2019-04-26T09:05:56.784Z,18176.00
2019-04-26T09:06:56.810Z,17696.00
2019-04-26T09:07:57.483Z,17504.00
2019-04-26T09:08:56.871Z,17664.00
2019-04-26T09:09:57.687Z,18304.00
2019-04-26T09:10:56.930Z,19680.00
2019-04-26T09:11:59.879Z,21056.00
2019-04-26T09:12:56.986Z,22336.00
2019-04-26T09:13:57.017Z,23680.00
2019-04-26T09:14:57.052Z,24896.00
2019-04-26T09:15:57.109Z,26240.00
2019-04-26T09:16:57.109Z,27008.00
2019-04-26T09:17:57.135Z,27200.00
2019-04-26T09:18:59.597Z,27328.00
2019-04-26T09:19:58.289Z,27744.00
2019-04-26T09:20:57.220Z,28512.00
2019-04-26T09:22:00.188Z,28768.00
2019-04-26T09:23:03.727Z,28672.00
2019-04-26T09:23:57.313Z,29312.00
2019-04-26T09:24:59.422Z,29696.00
2019-04-26T09:25:59.400Z,30400.00
2019-04-26T09:26:57.438Z,30816.00
2019-04-26T09:27:58.927Z,31104.00
2019-04-26T09:28:57.592Z,31040.00
2019-04-26T09:30:00.553Z,30688.00
2019-04-26T09:30:57.517Z,30048.00
2019-04-26T09:31:57.548Z,29696.00
2019-04-26T09:32:58.340Z,30112.00
2019-04-26T09:33:57.606Z,30848.00
2019-04-26T09:34:57.636Z,31648.00
2019-04-26T09:35:57.666Z,30432.00
2019-04-26T09:36:57.701Z,30080.00
2019-04-26T09:37:57.726Z,29792.00
2019-04-26T09:38:57.756Z,29568.00
2019-04-26T09:40:09.389Z,27584.00
2019-04-26T09:41:00.467Z,24992.00
2019-04-26T09:42:01.221Z,23136.00
2019-04-26T09:42:59.397Z,22624.00
2019-04-26T09:43:58.839Z,23200.00
2019-04-26T09:44:57.935Z,24032.00
2019-04-26T09:45:57.966Z,24608.00
2019-04-26T09:46:57.999Z,24768.00
2019-04-26T09:47:58.028Z,25024.00
2019-04-26T09:48:58.056Z,25472.00
2019-04-26T09:49:58.088Z,25824.00
2019-04-26T09:50:58.116Z,26176.00
2019-04-26T09:51:58.150Z,25984.00
2019-04-26T09:52:58.385Z,25184.00
2019-04-26T09:53:58.205Z,23840.00
2019-04-26T09:54:58.237Z,22624.00
2019-04-26T09:55:58.269Z,22144.00
2019-04-26T09:56:58.293Z,20960.00
2019-04-26T09:57:58.323Z,20352.00
2019-04-26T09:59:01.535Z,20256.00
2019-04-26T09:59:58.386Z,21536.00
2019-04-26T10:00:58.412Z,24832.00
2019-04-26T10:01:59.502Z,25504.00
2019-04-26T10:02:58.472Z,29376.00
2019-04-26T10:03:58.502Z,27776.00
2019-04-26T10:04:58.536Z,37696.00
2019-04-26T10:05:58.561Z,53728.00
2019-04-26T10:06:59.486Z,70880.00
2019-04-26T10:07:58.622Z,84800.00
2019-04-26T10:08:58.651Z,82336.00
2019-04-26T10:10:00.896Z,64896.00
2019-04-26T10:10:58.718Z,46464.00
2019-04-26T10:11:58.745Z,51776.00
2019-04-26T10:12:58.778Z,71936.00
2019-04-26T10:13:58.805Z,78848.00
2019-04-26T10:14:58.840Z,64576.00
2019-04-26T10:16:02.656Z,41696.00
2019-04-26T10:16:58.911Z,23648.00
2019-04-26T10:17:58.938Z,25504.00
2019-04-26T10:18:59.419Z,43488.00
2019-04-26T10:19:59.003Z,62656.00
2019-04-26T10:20:59.039Z,73248.00
2019-04-26T10:21:59.070Z,74880.00
2019-04-26T10:22:59.104Z,71744.00
2019-04-26T10:23:59.136Z,66176.00
2019-04-26T10:25:02.377Z,66080.00
2019-04-26T10:25:59.209Z,72192.00
2019-04-26T10:27:02.935Z,66816.00
2019-04-26T10:27:59.296Z,75552.00
2019-04-26T10:28:59.394Z,74016.00
2019-04-26T10:30:07.672Z,72192.00
2019-04-26T10:30:59.425Z,69536.00
2019-04-26T10:31:59.444Z,74080.00
2019-04-26T10:33:02.231Z,71200.00
2019-04-26T10:33:59.495Z,71008.00
2019-04-26T10:34:59.525Z,69408.00
2019-04-26T10:35:59.563Z,67904.00
2019-04-26T10:37:01.429Z,70496.00
2019-04-26T10:37:59.635Z,71584.00
2019-04-26T10:38:59.776Z,73504.00
2019-04-26T10:39:59.710Z,70816.00
2019-04-26T10:40:59.745Z,66400.00
2019-04-26T10:41:59.786Z,69472.00
2019-04-26T10:42:59.824Z,69152.00
2019-04-26T10:43:59.863Z,68192.00
2019-04-26T10:44:59.897Z,68448.00
2019-04-26T10:45:59.935Z,70208.00
2019-04-26T10:47:04.232Z,71968.00
2019-04-26T10:48:00.020Z,68960.00
2019-04-26T10:49:08.991Z,67616.00
2019-04-26T10:50:00.089Z,70176.00
2019-04-26T10:51:03.296Z,70240.00
2019-04-26T10:52:00.167Z,70464.00
2019-04-26T10:53:00.204Z,69984.00
2019-04-26T10:54:01.606Z,70240.00
2019-04-26T10:55:00.303Z,69888.00
2019-04-26T10:56:00.321Z,70272.00
2019-04-26T10:57:00.361Z,71424.00
2019-04-26T10:58:00.401Z,71488.00
2019-04-26T10:59:00.440Z,72384.00
2019-04-26T11:00:00.486Z,71328.00
2019-04-26T11:01:00.520Z,71072.00
2019-04-26T11:02:00.560Z,70368.00
2019-04-26T11:03:04.540Z,69920.00
2019-04-26T11:04:00.640Z,68192.00
2019-04-26T11:05:00.680Z,71168.00
2019-04-26T11:06:00.719Z,70592.00
2019-04-26T11:07:01.962Z,72032.00
2019-04-26T11:08:00.800Z,72576.00
2019-04-26T11:09:00.842Z,74688.00
2019-04-26T11:10:02.935Z,76256.00
2019-04-26T11:11:00.921Z,72864.00
2019-04-26T11:12:00.962Z,75616.00
2019-04-26T11:13:01.000Z,73376.00
2019-04-26T11:14:01.043Z,75168.00
2019-04-26T11:15:01.083Z,76992.00
2019-04-26T11:16:02.406Z,76288.00
2019-04-26T11:17:01.164Z,76224.00
2019-04-26T11:18:01.217Z,76896.00
2019-04-26T11:19:02.206Z,75904.00
2019-04-26T11:20:01.324Z,76800.00
2019-04-26T11:21:01.369Z,76288.00
2019-04-26T11:22:01.367Z,73632.00
2019-04-26T11:23:01.407Z,73792.00
2019-04-26T11:24:01.450Z,63168.00
2019-04-26T11:25:01.489Z,65664.00
2019-04-26T11:26:01.775Z,70528.00
2019-04-26T11:27:01.580Z,72992.00
2019-04-26T11:28:01.618Z,76160.00
2019-04-26T11:29:01.656Z,77248.00
2019-04-26T11:30:11.200Z,75136.00
2019-04-26T11:31:01.737Z,74432.00
2019-04-26T11:32:02.659Z,72576.00
2019-04-26T11:33:01.819Z,66080.00
2019-04-26T11:35:02.141Z,69408.00
2019-04-26T11:36:03.408Z,61664.00
2019-04-26T11:37:01.995Z,70304.00
2019-04-26T11:38:02.025Z,69696.00
2019-04-26T11:39:05.533Z,74976.00
2019-04-26T11:40:02.106Z,61120.00
2019-04-26T11:40:14.006Z,61376.00
2019-04-26T11:41:06.290Z,54336.00
2019-04-26T11:42:02.189Z,69600.00
2019-04-26T11:43:02.229Z,56384.00
2019-04-26T11:44:02.274Z,46688.00
2019-04-26T11:45:06.256Z,69344.00
2019-04-26T11:46:04.393Z,63168.00
2019-04-26T11:47:03.264Z,83136.00
2019-04-26T11:48:03.327Z,78240.00
2019-04-26T11:49:03.165Z,63776.00
2019-04-26T11:50:02.547Z,59584.00
2019-04-26T11:51:02.549Z,35488.00
2019-04-26T11:52:02.786Z,43008.00
2019-04-26T11:53:06.095Z,44448.00
2019-04-26T11:54:02.671Z,45472.00
2019-04-26T11:55:02.709Z,44288.00
2019-04-26T11:56:04.529Z,52800.00
2019-04-26T11:57:02.789Z,41504.00
2019-04-26T11:58:02.826Z,40224.00
2019-04-26T11:59:02.867Z,34016.00
2019-04-26T12:00:05.504Z,35840.00
2019-04-26T12:01:02.940Z,37888.00
2019-04-26T12:02:02.976Z,46240.00
2019-04-26T12:03:03.020Z,43104.00
2019-04-26T12:04:03.054Z,33568.00
2019-04-26T12:05:03.098Z,29504.00
2019-04-26T12:06:03.126Z,25952.00
2019-04-26T12:07:03.235Z,25440.00
2019-04-26T12:08:03.235Z,27264.00
2019-04-26T12:09:03.313Z,24576.00
2019-04-26T12:10:05.960Z,24224.00
2019-04-26T12:11:03.309Z,34880.00
2019-04-26T12:12:04.951Z,25760.00
2019-04-26T12:13:05.975Z,33600.00
2019-04-26T12:14:04.077Z,31296.00
2019-04-26T12:15:03.832Z,30848.00